createdAt,value
2023-03-27T00:01:14.908Z,94361.78
2023-03-27T00:03:43.865Z,94369.44
2023-03-27T00:06:16.442Z,94359.06
2023-03-27T00:08:46.469Z,94362.59
2023-03-27T00:11:14.836Z,94358.91
2023-03-27T00:13:49.799Z,94352.47
2023-03-27T00:16:19.916Z,94348.59
2023-03-27T00:18:47.889Z,94371.13
2023-03-27T00:21:16.883Z,94364.81
2023-03-27T00:23:45.169Z,94362.66
2023-03-27T00:26:13.321Z,94377.00
2023-03-27T00:28:41.226Z,94369.16
2023-03-27T00:31:11.836Z,94364.09
2023-03-27T00:33:40.169Z,94365.38
2023-03-27T00:36:08.718Z,94367.56
2023-03-27T00:38:39.484Z,94360.94
2023-03-27T00:41:08.563Z,94358.19
2023-03-27T00:43:37.855Z,94369.97
2023-03-27T00:46:14.602Z,94349.63
2023-03-27T00:48:44.476Z,94366.38
2023-03-27T00:51:12.279Z,94377.25
2023-03-27T00:53:42.745Z,94369.97
2023-03-27T00:56:10.991Z,94366.72
2023-03-27T00:58:43.566Z,94370.22
2023-03-27T01:01:14.608Z,94373.94
2023-03-27T01:03:44.233Z,94369.25
2023-03-27T01:06:14.505Z,94364.81
2023-03-27T01:08:45.028Z,94359.69
2023-03-27T01:11:20.918Z,94357.91
2023-03-27T01:14:01.679Z,94367.16
2023-03-27T01:16:39.415Z,94372.50
2023-03-27T01:19:36.829Z,94368.81
2023-03-27T01:22:53.529Z,94364.03
2023-03-27T01:25:51.184Z,94367.00
2023-03-27T01:28:32.032Z,94368.97
2023-03-27T01:31:16.620Z,94377.44
2023-03-27T01:34:16.258Z,94386.03
2023-03-27T01:37:17.565Z,94374.03
2023-03-27T01:39:54.892Z,94372.22
2023-03-27T01:42:27.421Z,94378.91
2023-03-27T01:45:02.625Z,94387.56
2023-03-27T01:47:43.817Z,94385.03
2023-03-27T01:50:19.858Z,94387.34
2023-03-27T01:52:54.804Z,94393.88
2023-03-27T01:55:27.607Z,94396.00
2023-03-27T01:58:03.255Z,94387.25
2023-03-27T02:00:52.108Z,94390.41
2023-03-27T02:03:23.762Z,94395.34
2023-03-27T02:05:56.969Z,94395.59
2023-03-27T02:08:31.197Z,94407.16
2023-03-27T02:11:10.729Z,94408.00
2023-03-27T02:13:43.196Z,94406.00
2023-03-27T02:16:18.352Z,94417.59
2023-03-27T02:18:52.693Z,94418.28
2023-03-27T02:21:20.377Z,94425.16
2023-03-27T02:23:48.302Z,94403.03
2023-03-27T02:26:17.660Z,94408.69
2023-03-27T02:28:56.799Z,94406.31
2023-03-27T02:31:50.752Z,94409.25
2023-03-27T02:34:42.714Z,94412.00
2023-03-27T02:37:22.869Z,94418.59
2023-03-27T02:40:32.859Z,94407.78
2023-03-27T02:43:46.761Z,94424.81
2023-03-27T02:46:25.266Z,94423.53
2023-03-27T02:48:56.953Z,94430.41
2023-03-27T02:51:29.306Z,94427.06
2023-03-27T02:54:00.987Z,94433.09
2023-03-27T02:56:34.072Z,94440.25
2023-03-27T02:59:08.776Z,94449.09
2023-03-27T03:01:41.894Z,94448.50
2023-03-27T03:04:21.209Z,94444.22
2023-03-27T03:07:06.435Z,94468.41
2023-03-27T03:09:40.490Z,94456.28
2023-03-27T03:12:10.150Z,94471.44
2023-03-27T03:14:45.030Z,94482.19
2023-03-27T03:17:13.532Z,94471.38
2023-03-27T03:19:41.394Z,94487.72
2023-03-27T03:22:09.930Z,94480.97
2023-03-27T03:24:42.153Z,94507.06
2023-03-27T03:27:12.758Z,94496.09
2023-03-27T03:29:58.391Z,94501.56
2023-03-27T03:32:30.293Z,94497.03
2023-03-27T03:34:58.638Z,94510.38
2023-03-27T03:37:28.650Z,94506.31
2023-03-27T03:39:58.322Z,94522.88
2023-03-27T03:42:25.971Z,94533.25
2023-03-27T03:44:54.113Z,94529.72
2023-03-27T03:47:24.757Z,94545.22
2023-03-27T03:49:52.936Z,94549.53
2023-03-27T03:52:21.041Z,94565.28
2023-03-27T03:54:48.809Z,94572.84
2023-03-27T03:57:17.104Z,94585.38
2023-03-27T03:59:52.138Z,94592.91
2023-03-27T04:02:44.454Z,94605.13
2023-03-27T04:05:15.196Z,94610.38
2023-03-27T04:07:43.198Z,94614.47
2023-03-27T04:10:23.350Z,94632.91
2023-03-27T04:12:52.197Z,94634.22
2023-03-27T04:15:49.652Z,94638.22
2023-03-27T04:18:30.260Z,94647.16
2023-03-27T04:20:59.276Z,94647.53
2023-03-27T04:23:30.290Z,94659.34
2023-03-27T04:26:00.236Z,94659.13
2023-03-27T04:28:37.193Z,94665.91
2023-03-27T04:31:24.428Z,94683.88
2023-03-27T04:34:13.367Z,94697.94
2023-03-27T04:37:00.777Z,94701.41
2023-03-27T04:39:29.770Z,94715.44
2023-03-27T04:41:58.315Z,94723.47
2023-03-27T04:44:31.387Z,94729.69
2023-03-27T04:47:02.789Z,94735.69
2023-03-27T04:49:38.676Z,94739.94
2023-03-27T04:52:17.518Z,94745.78
2023-03-27T04:54:46.633Z,94757.06
2023-03-27T04:57:15.776Z,94756.75
2023-03-27T04:59:43.501Z,94776.63
2023-03-27T05:02:44.720Z,94784.97
2023-03-27T05:05:36.601Z,94787.75
2023-03-27T05:08:06.507Z,94799.13
2023-03-27T05:10:34.130Z,94799.63
2023-03-27T05:13:02.197Z,94809.16
2023-03-27T05:15:32.346Z,94806.78
2023-03-27T05:18:01.200Z,94817.59
2023-03-27T05:20:30.558Z,94838.34
2023-03-27T05:23:01.574Z,94838.06
2023-03-27T05:25:31.291Z,94855.59
2023-03-27T05:28:00.910Z,94859.19
2023-03-27T05:30:34.623Z,94850.94
2023-03-27T05:33:14.926Z,94866.47
2023-03-27T05:35:43.216Z,94873.91
2023-03-27T05:38:14.312Z,94883.09
2023-03-27T05:41:02.659Z,94895.75
2023-03-27T05:43:32.192Z,94895.25
2023-03-27T05:46:00.784Z,94906.00
2023-03-27T05:48:28.699Z,94918.28
2023-03-27T05:51:00.770Z,94922.22
2023-03-27T05:53:29.775Z,94919.41
2023-03-27T05:56:18.155Z,94931.16
2023-03-27T05:58:54.099Z,94938.84
2023-03-27T06:01:23.832Z,94953.75
2023-03-27T06:03:56.005Z,94962.72
2023-03-27T06:06:44.289Z,94970.78
2023-03-27T06:09:13.979Z,94980.44
2023-03-27T06:11:47.907Z,94987.41
2023-03-27T06:14:15.513Z,94993.78
2023-03-27T06:17:01.397Z,94995.97
2023-03-27T06:19:58.358Z,95007.81
2023-03-27T06:22:26.593Z,95011.94
2023-03-27T06:24:55.752Z,95028.63
2023-03-27T06:27:24.046Z,95043.66
2023-03-27T06:29:51.726Z,95036.13
2023-03-27T06:32:20.448Z,95055.41
2023-03-27T06:34:51.966Z,95056.97
2023-03-27T06:37:40.866Z,95049.94
2023-03-27T06:40:20.081Z,95066.00
2023-03-27T06:42:54.275Z,95080.28
2023-03-27T06:45:33.226Z,95078.44
2023-03-27T06:48:21.387Z,95083.34
2023-03-27T06:50:53.980Z,95103.09
2023-03-27T06:55:55.385Z,95112.84
2023-03-27T06:58:24.856Z,95120.44
2023-03-27T07:00:52.730Z,95122.44
2023-03-27T07:03:22.828Z,95135.78
2023-03-27T07:06:09.810Z,95142.00
2023-03-27T07:08:47.729Z,95145.13
2023-03-27T07:11:18.439Z,95148.41
2023-03-27T07:13:54.863Z,95155.63
2023-03-27T07:16:26.418Z,95169.53
2023-03-27T07:18:54.334Z,95168.06
2023-03-27T07:21:22.287Z,95171.13
2023-03-27T07:23:50.614Z,95181.66
2023-03-27T07:26:30.120Z,95193.44
2023-03-27T07:29:18.151Z,95189.69
2023-03-27T07:34:30.493Z,95221.44
2023-03-27T07:37:18.419Z,95226.16
2023-03-27T07:40:08.964Z,95226.78
2023-03-27T07:42:39.089Z,95234.13
2023-03-27T07:45:10.907Z,95242.69
2023-03-27T07:47:38.721Z,95248.97
2023-03-27T07:50:11.247Z,95259.28
2023-03-27T07:52:40.819Z,95263.59
2023-03-27T07:55:09.826Z,95285.84
2023-03-27T07:57:59.699Z,95289.69
2023-03-27T08:00:30.145Z,95295.94
2023-03-27T08:03:09.416Z,95320.28
2023-03-27T08:05:39.917Z,95300.16
2023-03-27T08:08:12.420Z,95314.47
2023-03-27T08:10:56.961Z,95314.47
2023-03-27T08:13:28.035Z,95309.88
2023-03-27T08:16:08.636Z,95315.66
2023-03-27T08:18:38.009Z,95325.16
2023-03-27T08:21:09.596Z,95339.81
2023-03-27T08:23:39.549Z,95341.81
2023-03-27T08:26:39.649Z,95342.28
2023-03-27T08:29:12.063Z,95354.66
2023-03-27T08:31:40.004Z,95348.56
2023-03-27T08:34:08.777Z,95355.53
2023-03-27T08:36:47.685Z,95368.50
2023-03-27T08:39:16.732Z,95373.97
2023-03-27T08:41:59.074Z,95378.63
2023-03-27T08:44:36.211Z,95387.91
2023-03-27T08:47:16.771Z,95390.56
2023-03-27T08:50:18.801Z,95400.28
2023-03-27T08:52:51.097Z,95407.06
2023-03-27T08:55:39.074Z,95410.91
2023-03-27T08:58:20.699Z,95415.78
2023-03-27T09:01:01.543Z,95420.97
2023-03-27T09:03:35.214Z,95430.00
2023-03-27T09:06:10.766Z,95441.41
2023-03-27T09:08:53.046Z,95430.56
2023-03-27T09:11:33.777Z,95433.88
2023-03-27T09:14:11.584Z,95434.66
2023-03-27T09:16:50.140Z,95445.06
2023-03-27T09:19:42.718Z,95459.22
2023-03-27T09:22:22.323Z,95449.84
2023-03-27T09:25:16.936Z,95463.34
2023-03-27T09:28:03.437Z,95470.19
2023-03-27T09:30:42.291Z,95475.69
2023-03-27T09:33:24.113Z,95465.69
2023-03-27T09:35:52.712Z,95474.19
2023-03-27T09:38:27.822Z,95490.31
2023-03-27T09:41:00.227Z,95493.91
2023-03-27T09:43:37.477Z,95484.06
2023-03-27T09:46:07.342Z,95499.91
2023-03-27T09:48:41.556Z,95513.34
2023-03-27T09:51:38.797Z,95514.09
2023-03-27T09:54:12.726Z,95508.22
2023-03-27T09:56:42.442Z,95525.47
2023-03-27T09:59:19.497Z,95526.34
2023-03-27T10:01:48.910Z,95525.16
2023-03-27T10:04:21.852Z,95535.72
2023-03-27T10:07:02.606Z,95538.31
2023-03-27T10:09:44.453Z,95544.09
2023-03-27T10:12:20.295Z,95538.84
2023-03-27T10:14:52.939Z,95539.38
2023-03-27T10:17:28.180Z,95551.44
2023-03-27T10:20:15.787Z,95548.97
2023-03-27T10:22:54.464Z,95538.22
2023-03-27T10:25:30.198Z,95551.56
2023-03-27T10:28:18.359Z,95554.88
2023-03-27T10:31:08.483Z,95562.81
2023-03-27T10:33:53.412Z,95578.03
2023-03-27T10:36:48.420Z,95571.53
2023-03-27T10:39:20.837Z,95573.19
2023-03-27T10:42:17.059Z,95583.88
2023-03-27T10:44:54.407Z,95573.44
2023-03-27T10:47:27.452Z,95587.22
2023-03-27T10:50:04.829Z,95582.88
2023-03-27T10:52:51.364Z,95584.81
2023-03-27T10:55:44.411Z,95581.75
2023-03-27T10:58:24.589Z,95584.44
2023-03-27T11:00:59.568Z,95579.38
2023-03-27T11:03:34.650Z,95602.88
2023-03-27T11:06:12.448Z,95601.88
2023-03-27T11:08:53.015Z,95608.00
2023-03-27T11:11:29.257Z,95586.91
2023-03-27T11:14:03.225Z,95589.13
2023-03-27T11:16:36.370Z,95607.69
2023-03-27T11:19:23.418Z,95604.78
2023-03-27T11:22:15.418Z,95609.84
2023-03-27T11:24:54.735Z,95625.47
2023-03-27T11:27:30.405Z,95624.88
2023-03-27T11:30:14.270Z,95622.03
2023-03-27T11:33:03.064Z,95626.13
2023-03-27T11:35:37.747Z,95621.75
2023-03-27T11:38:32.561Z,95619.66
2023-03-27T11:41:04.243Z,95625.91
2023-03-27T11:43:32.905Z,95634.38
2023-03-27T11:46:16.781Z,95636.84
2023-03-27T11:49:10.483Z,95621.31
2023-03-27T11:51:57.378Z,95626.06
2023-03-27T11:54:41.681Z,95630.16
2023-03-27T11:57:23.467Z,95624.69
2023-03-27T12:00:16.209Z,95619.56
2023-03-27T12:03:06.801Z,95619.03
2023-03-27T12:05:48.268Z,95632.06
2023-03-27T12:08:27.259Z,95630.09
2023-03-27T12:11:00.774Z,95639.38
2023-03-27T12:14:01.737Z,95654.59
2023-03-27T12:16:53.299Z,95656.03
2023-03-27T12:19:47.545Z,95642.38
2023-03-27T12:22:38.052Z,95649.47
2023-03-27T12:25:50.150Z,95666.81
2023-03-27T12:28:58.603Z,95640.19
2023-03-27T12:31:57.940Z,95648.03
2023-03-27T12:34:49.926Z,95649.69
2023-03-27T12:37:20.325Z,95663.13
2023-03-27T12:39:51.997Z,95659.88
2023-03-27T12:42:44.005Z,95661.28
2023-03-27T12:45:18.004Z,95670.25
2023-03-27T12:48:20.208Z,95654.00
2023-03-27T12:50:58.226Z,95671.81
2023-03-27T12:53:48.125Z,95681.44
2023-03-27T12:56:35.910Z,95682.81
2023-03-27T12:59:15.826Z,95677.41
2023-03-27T13:01:59.719Z,95682.03
2023-03-27T13:05:06.722Z,95675.22
2023-03-27T13:07:49.002Z,95695.28
2023-03-27T13:10:39.366Z,95686.91
2023-03-27T13:13:24.566Z,95685.59
2023-03-27T13:16:25.856Z,95677.63
2023-03-27T13:19:27.862Z,95679.13
2023-03-27T13:22:16.172Z,95692.16
2023-03-27T13:25:01.186Z,95680.19
2023-03-27T13:27:46.090Z,95681.47
2023-03-27T13:30:46.921Z,95691.09
2023-03-27T13:33:45.032Z,95688.72
2023-03-27T13:36:19.718Z,95695.19
2023-03-27T13:39:22.710Z,95688.66
2023-03-27T13:42:06.323Z,95693.84
2023-03-27T13:44:56.099Z,95693.47
2023-03-27T13:47:52.893Z,95714.59
2023-03-27T13:50:47.351Z,95739.25
2023-03-27T13:53:32.961Z,95712.97
2023-03-27T13:56:27.292Z,95717.13
2023-03-27T13:59:44.597Z,95726.66
2023-03-27T14:02:56.247Z,95718.03
2023-03-27T14:05:39.692Z,95725.94
2023-03-27T14:08:32.285Z,95709.25
2023-03-27T14:11:43.888Z,95723.09
2023-03-27T14:14:46.253Z,95727.41
2023-03-27T14:17:45.898Z,95736.13
2023-03-27T14:20:23.327Z,95744.69
2023-03-27T14:22:58.864Z,95754.38
2023-03-27T14:25:38.428Z,95747.69
2023-03-27T14:28:33.402Z,95740.41
2023-03-27T14:31:08.542Z,95740.09
2023-03-27T14:34:00.935Z,95733.41
2023-03-27T14:36:41.887Z,95735.25
2023-03-27T14:39:19.163Z,95742.56
2023-03-27T14:41:55.776Z,95749.06
2023-03-27T14:44:25.060Z,95746.38
2023-03-27T14:46:58.050Z,95758.06
2023-03-27T14:49:32.537Z,95747.28
2023-03-27T14:52:07.829Z,95754.88
2023-03-27T14:54:57.811Z,95743.59
2023-03-27T14:57:31.939Z,95746.88
2023-03-27T15:00:06.877Z,95749.47
2023-03-27T15:02:42.021Z,95735.13
2023-03-27T15:05:15.455Z,95731.28
2023-03-27T15:07:48.850Z,95728.97
2023-03-27T15:10:39.660Z,95741.06
2023-03-27T15:13:11.270Z,95746.94
2023-03-27T15:15:50.510Z,95743.13
2023-03-27T15:18:25.304Z,95745.50
2023-03-27T15:20:55.007Z,95751.91
2023-03-27T15:23:26.361Z,95761.16
2023-03-27T15:25:58.679Z,95759.53
2023-03-27T15:28:32.766Z,95747.88
2023-03-27T15:31:03.977Z,95751.25
2023-03-27T15:33:35.126Z,95758.34
2023-03-27T15:36:07.297Z,95755.03
2023-03-27T15:38:37.261Z,95763.22
2023-03-27T15:41:41.032Z,95769.88
2023-03-27T15:44:16.736Z,95775.41
2023-03-27T15:46:55.953Z,95778.84
2023-03-27T15:49:27.791Z,95787.94
2023-03-27T15:51:56.217Z,95806.91
2023-03-27T15:54:26.763Z,95807.94
2023-03-27T15:57:10.576Z,95812.44
2023-03-27T15:59:52.560Z,95817.13
2023-03-27T16:02:22.773Z,95836.09
2023-03-27T16:04:53.490Z,95838.31
2023-03-27T16:07:25.295Z,95836.47
2023-03-27T16:09:56.031Z,95821.72
2023-03-27T16:12:30.340Z,95834.69
2023-03-27T16:15:01.506Z,95820.34
2023-03-27T16:17:34.266Z,95825.81
2023-03-27T16:20:08.020Z,95835.28
2023-03-27T16:22:38.097Z,95829.84
2023-03-27T16:25:09.818Z,95838.53
2023-03-27T16:27:39.842Z,95843.25
2023-03-27T16:30:20.898Z,95853.09
2023-03-27T16:32:48.754Z,95853.13
2023-03-27T16:35:16.946Z,95846.16
2023-03-27T16:37:44.762Z,95856.44
2023-03-27T16:40:13.125Z,95861.66
2023-03-27T16:42:41.104Z,95855.34
2023-03-27T16:45:11.096Z,95860.25
2023-03-27T16:47:38.939Z,95863.16
2023-03-27T16:50:11.563Z,95867.53
2023-03-27T16:52:39.547Z,95880.56
2023-03-27T16:55:08.304Z,95873.44
2023-03-27T16:57:36.113Z,95864.38
2023-03-27T17:00:05.363Z,95873.44
2023-03-27T17:02:36.352Z,95866.88
2023-03-27T17:05:04.223Z,95880.06
2023-03-27T17:07:32.430Z,95879.13
2023-03-27T17:10:00.749Z,95880.75
2023-03-27T17:12:28.832Z,95889.13
2023-03-27T17:14:58.064Z,95891.06
2023-03-27T17:17:27.544Z,95890.50
2023-03-27T17:19:56.978Z,95890.75
2023-03-27T17:22:26.337Z,95894.19
2023-03-27T17:24:57.228Z,95900.38
2023-03-27T17:27:26.384Z,95909.47
2023-03-27T17:29:55.542Z,95902.03
2023-03-27T17:32:24.122Z,95904.53
2023-03-27T17:34:52.126Z,95897.94
2023-03-27T17:37:22.248Z,95910.97
2023-03-27T17:39:50.578Z,95906.09
2023-03-27T17:42:18.506Z,95914.38
2023-03-27T17:44:46.257Z,95912.19
2023-03-27T17:47:14.100Z,95911.69
2023-03-27T17:49:43.506Z,95924.78
2023-03-27T17:52:12.097Z,95931.38
2023-03-27T17:54:42.015Z,95925.25
2023-03-27T17:57:09.648Z,95940.19
2023-03-27T17:59:38.581Z,95926.47
2023-03-27T18:02:07.082Z,95930.81
2023-03-27T18:04:35.408Z,95942.59
2023-03-27T18:07:03.008Z,95938.88
2023-03-27T18:09:33.802Z,95942.50
2023-03-27T18:12:02.766Z,95945.56
2023-03-27T18:14:30.807Z,95950.59
2023-03-27T18:16:58.610Z,95961.44
2023-03-27T18:19:26.473Z,95966.53
2023-03-27T18:21:54.095Z,95966.03
2023-03-27T18:24:21.766Z,95963.53
2023-03-27T18:26:49.371Z,95964.56
2023-03-27T18:29:21.270Z,95969.94
2023-03-27T18:31:49.592Z,95970.56
2023-03-27T18:34:17.334Z,95979.53
2023-03-27T18:36:50.603Z,95974.91
2023-03-27T18:39:18.707Z,95979.56
2023-03-27T18:41:46.355Z,95981.53
2023-03-27T18:44:14.463Z,95990.31
2023-03-27T18:46:43.489Z,95984.91
2023-03-27T18:49:23.478Z,95990.81
2023-03-27T18:51:52.128Z,95992.91
2023-03-27T18:54:19.796Z,95999.19
2023-03-27T18:56:48.601Z,96005.13
2023-03-27T18:59:16.650Z,96003.19
2023-03-27T19:01:45.993Z,95999.31
2023-03-27T19:04:16.478Z,95991.50
2023-03-27T19:06:46.163Z,96002.66
2023-03-27T19:09:14.275Z,96000.34
2023-03-27T19:11:43.845Z,96004.28
2023-03-27T19:14:17.794Z,96009.63
2023-03-27T19:17:07.176Z,96009.19
2023-03-27T19:19:54.787Z,96008.72
2023-03-27T19:22:35.521Z,96017.44
2023-03-27T19:25:16.248Z,96022.63
2023-03-27T19:27:44.193Z,96015.34
2023-03-27T19:30:14.778Z,96015.69
2023-03-27T19:32:43.886Z,96012.81
2023-03-27T19:35:11.582Z,96020.63
2023-03-27T19:37:39.206Z,96018.28
2023-03-27T19:40:10.087Z,96029.28
2023-03-27T19:42:37.721Z,96028.84
2023-03-27T19:45:06.639Z,96035.25
2023-03-27T19:47:34.326Z,96030.38
2023-03-27T19:50:04.030Z,96034.75
2023-03-27T19:52:39.948Z,96035.50
2023-03-27T19:55:08.537Z,96037.03
2023-03-27T19:57:36.307Z,96036.91
2023-03-27T20:00:09.338Z,96034.78
2023-03-27T20:02:41.813Z,96027.25
2023-03-27T20:05:11.429Z,96039.53
2023-03-27T20:07:39.064Z,96036.22
2023-03-27T20:10:10.203Z,96035.03
2023-03-27T20:12:37.857Z,96030.88
2023-03-27T20:15:12.116Z,96023.44
2023-03-27T20:17:43.311Z,96027.81
2023-03-27T20:20:12.935Z,96030.09
2023-03-27T20:22:54.093Z,96026.28
2023-03-27T20:25:25.338Z,96026.53
2023-03-27T20:27:53.006Z,96024.16
2023-03-27T20:30:20.880Z,96038.44
2023-03-27T20:32:50.778Z,96032.66
2023-03-27T20:35:24.409Z,96036.56
2023-03-27T20:37:57.406Z,96028.41
2023-03-27T20:40:26.370Z,96033.72
2023-03-27T20:43:03.594Z,96034.09
2023-03-27T20:45:31.760Z,96046.13
2023-03-27T20:48:03.654Z,96044.69
2023-03-27T20:50:35.777Z,96035.63
2023-03-27T20:53:04.563Z,96039.75
2023-03-27T20:55:37.260Z,96059.59
2023-03-27T20:58:07.426Z,96059.13
2023-03-27T21:00:35.148Z,96059.03
2023-03-27T21:03:03.025Z,96050.50
2023-03-27T21:05:32.858Z,96056.41
2023-03-27T21:08:00.512Z,96056.53
2023-03-27T21:10:28.165Z,96060.53
2023-03-27T21:12:57.432Z,96062.94
2023-03-27T21:15:25.639Z,96061.50
2023-03-27T21:17:53.570Z,96064.81
2023-03-27T21:20:21.489Z,96056.09
2023-03-27T21:22:52.831Z,96070.25
2023-03-27T21:25:20.953Z,96072.84
2023-03-27T21:27:53.892Z,96064.00
2023-03-27T21:30:22.082Z,96067.06
2023-03-27T21:32:50.860Z,96068.38
2023-03-27T21:35:18.708Z,96061.97
2023-03-27T21:37:46.403Z,96064.34
2023-03-27T21:40:16.100Z,96053.91
2023-03-27T21:42:43.714Z,96059.59
2023-03-27T21:45:11.505Z,96067.41
2023-03-27T21:47:47.077Z,96073.81
2023-03-27T21:50:15.926Z,96087.88
2023-03-27T21:52:43.909Z,96092.00
2023-03-27T21:55:11.774Z,96107.97
2023-03-27T21:57:41.004Z,96115.69
2023-03-27T22:00:09.783Z,96128.19
2023-03-27T22:02:43.458Z,96120.38
2023-03-27T22:05:11.137Z,96117.28
2023-03-27T22:07:38.896Z,96126.72
2023-03-27T22:10:07.609Z,96132.13
2023-03-27T22:12:36.783Z,96109.09
2023-03-27T22:15:07.473Z,96095.13
2023-03-27T22:17:36.730Z,96115.81
2023-03-27T22:20:05.260Z,96114.66
2023-03-27T22:22:34.983Z,96120.00
2023-03-27T22:25:03.118Z,96124.94
2023-03-27T22:27:31.561Z,96110.75
2023-03-27T22:29:59.194Z,96111.66
2023-03-27T22:32:28.443Z,96121.53
2023-03-27T22:34:56.104Z,96125.00
2023-03-27T22:37:25.157Z,96130.44
2023-03-27T22:39:53.216Z,96125.66
2023-03-27T22:42:21.175Z,96140.69
2023-03-27T22:44:49.026Z,96139.47
2023-03-27T22:47:16.632Z,96133.03
2023-03-27T22:49:46.096Z,96150.16
2023-03-27T22:52:13.721Z,96151.63
2023-03-27T22:54:41.590Z,96155.81
2023-03-27T22:57:09.733Z,96151.03
2023-03-27T22:59:37.709Z,96155.19
2023-03-27T23:02:05.338Z,96147.50
2023-03-27T23:04:33.130Z,96153.88
2023-03-27T23:07:02.809Z,96163.31
2023-03-27T23:09:30.884Z,96161.00
2023-03-27T23:11:58.663Z,96162.00
2023-03-27T23:14:26.259Z,96169.50
2023-03-27T23:16:53.957Z,96166.19
2023-03-27T23:19:22.252Z,96163.56
2023-03-27T23:21:49.826Z,96164.59
2023-03-27T23:24:19.001Z,96165.44
2023-03-27T23:26:46.573Z,96164.97
2023-03-27T23:29:14.382Z,96170.97
2023-03-27T23:31:42.002Z,96167.97
2023-03-27T23:34:09.883Z,96167.50
2023-03-27T23:36:37.481Z,96170.06
2023-03-27T23:39:05.439Z,96172.69
2023-03-27T23:41:34.369Z,96168.31
2023-03-27T23:44:02.100Z,96175.38
2023-03-27T23:46:29.709Z,96176.72
2023-03-27T23:48:57.564Z,96182.84
2023-03-27T23:51:25.448Z,96184.00
2023-03-27T23:53:53.455Z,96185.34
2023-03-27T23:56:21.160Z,96185.75
2023-03-27T23:58:50.284Z,96194.50
